Ephraim, WI (54211)

5:14 AM CDT on September 16, 2014 (GMT -0500)
2 miles North of town | Change Station
CLOSE
Current Station
Personal Weather Station
Location: Sister Bay, WI
Elevation: 710 ft
Nearby Weather Stations

Elev 710 ft 45.22 °N, 87.11 °W | Updated 10 minutes ago

Clear
Clear
49.8 °F
Feels Like 47 °F
N
7.0
Wind Variable Wind from West
Gusts 12.0 mph

Today
High -- | Low -- °F
--% Chance of Precip.
Yesterday
High -- | Low -- °F
Precip. -- in
6:28 AM 6:57 PM
Waning Gibbous, 47% visible
Pressure 30.14 in
Visibility 10.0 miles
Clouds Clear
Windchill 47 °F
Dew Point 41 °F
Humidity 72%
Rainfall -999.00 in
Snow Depth Not available.
UV 0 out of 12
Pollen 2.80 out of 12
Air Quality Not available.
Flu Activity Not available.
METAR KMNM 160955Z AUTO 27004KT 10SM CLR 04/03 A3014 RMK AO1

More Conditions Fewer Conditions

Pressure 30.14 in
Visibility 10.0 miles
Clouds Clear
Windchill 47 °F
Dew Point 41 °F
Humidity 72%
Rainfall -999.00 in
Snow Depth Not available.
UV 0 out of 12
Pollen 2.80 out of 12
Air Quality Not available.
Flu Activity Not available.
METAR KMNM 160955Z AUTO 27004KT 10SM CLR 04/03 A3014 RMK AO1

More Conditions Fewer Conditions

10-Day Weather Forecast

Almanac

Astronomy

Sep. 16, 2014 Rise Set
Actual Time 6:28 AM CDT 6:57 PM CDT
Civil Twilight 5:58 AM CDT 7:27 PM CDT
Nautical Twilight 5:23 AM CDT 8:01 PM CDT
Astronomical Twilight 4:47 AM CDT 8:38 PM CDT
Moon No Moon Rise 2:32 PM CDT
Length of Visible Light 13h 28m
Length of Day
12h 29m
Tomorrow will be 3m 7s shorter.
Waning Gibbous, 47% of the Moon is Illuminated
Today
Waning Gibbous
Sep 24
New
Oct 1
First Quarter
Oct 8
Full
Oct 15
Last Quarter

Today's Extremes

State Highs State Lows

Community

WunderPhotos

Upload Photos

1,753,717 photos uploaded!

WunderBlogs® & News

Nearby

Snow Depth

Station Depth Elevation
No new snow has been reported.

Earthquake Activity

City Distance Mag. Time & Date
No recent earthquake activity has been reported nearby.
Minimum magnitude displayed is 2.5.

Coastal Water Temperatures

Place Temperature
Menominee, MI 61.0 °F

Nearby Weather Stations